sensor_id;sensor_type;location;lat;lon;timestamp;P1;P2;P0
77481;PMS5003;66582;43.004;-75.010;2023-03-29T00:02:01;13;12;
77481;PMS5003;66582;43.004;-75.010;2023-03-29T00:04:26;32;30;
77481;PMS5003;66582;43.004;-75.010;2023-03-29T00:06:52;34;31;
77481;PMS5003;66582;43.004;-75.010;2023-03-29T00:16:32;15;15;
77481;PMS5003;66582;43.004;-75.010;2023-03-29T00:18:58;15;14;
77481;PMS5003;66582;43.004;-75.010;2023-03-29T00:21:24;33;32;
77481;PMS5003;66582;43.004;-75.010;2023-03-29T00:23:50;15;14;
77481;PMS5003;66582;43.004;-75.010;2023-03-29T00:26:15;12;11;
77481;PMS5003;66582;43.004;-75.010;2023-03-29T00:28:40;58;52;
77481;PMS5003;66582;43.004;-75.010;2023-03-29T00:31:07;72;65;
77481;PMS5003;66582;43.004;-75.010;2023-03-29T00:33:31;57;55;
77481;PMS5003;66582;43.004;-75.010;2023-03-29T00:35:56;37;37;
77481;PMS5003;66582;43.004;-75.010;2023-03-29T00:38:21;35;34;
77481;PMS5003;66582;43.004;-75.010;2023-03-29T00:40:46;44;39;
77481;PMS5003;66582;43.004;-75.010;2023-03-29T00:43:12;30;30;
77481;PMS5003;66582;43.004;-75.010;2023-03-29T00:45:37;40;40;
77481;PMS5003;66582;43.004;-75.010;2023-03-29T00:48:03;65;60;
77481;PMS5003;66582;43.004;-75.010;2023-03-29T00:50:28;32;32;
77481;PMS5003;66582;43.004;-75.010;2023-03-29T00:52:56;31;30;
77481;PMS5003;66582;43.004;-75.010;2023-03-29T00:55:20;22;22;
77481;PMS5003;66582;43.004;-75.010;2023-03-29T00:57:45;22;21;
77481;PMS5003;66582;43.004;-75.010;2023-03-29T01:00:10;19;19;
77481;PMS5003;66582;43.004;-75.010;2023-03-29T01:02:35;20;17;
77481;PMS5003;66582;43.004;-75.010;2023-03-29T01:05:01;12;12;
77481;PMS5003;66582;43.004;-75.010;2023-03-29T01:07:26;12;11;
77481;PMS5003;66582;43.004;-75.010;2023-03-29T01:09:51;7;7;
77481;PMS5003;66582;43.004;-75.010;2023-03-29T01:12:17;14;14;
77481;PMS5003;66582;43.004;-75.010;2023-03-29T01:14:42;11;11;
77481;PMS5003;66582;43.004;-75.010;2023-03-29T01:17:06;10;9;
77481;PMS5003;66582;43.004;-75.010;2023-03-29T01:19:33;10;10;
77481;PMS5003;66582;43.004;-75.010;2023-03-29T01:21:58;7;7;
77481;PMS5003;66582;43.004;-75.010;2023-03-29T01:24:27;14;12;
77481;PMS5003;66582;43.004;-75.010;2023-03-29T01:26:51;19;16;
77481;PMS5003;66582;43.004;-75.010;2023-03-29T01:29:12;10;10;
77481;PMS5003;66582;43.004;-75.010;2023-03-29T01:31:38;11;9;
77481;PMS5003;66582;43.004;-75.010;2023-03-29T01:34:04;9;7;
77481;PMS5003;66582;43.004;-75.010;2023-03-29T01:36:29;11;11;
77481;PMS5003;66582;43.004;-75.010;2023-03-29T01:38:54;19;18;
77481;PMS5003;66582;43.004;-75.010;2023-03-29T01:41:18;20;19;
77481;PMS5003;66582;43.004;-75.010;2023-03-29T01:43:44;19;17;
77481;PMS5003;66582;43.004;-75.010;2023-03-29T01:46:10;20;19;
77481;PMS5003;66582;43.004;-75.010;2023-03-29T01:48:35;18;17;
77481;PMS5003;66582;43.004;-75.010;2023-03-29T01:51:01;11;11;
77481;PMS5003;66582;43.004;-75.010;2023-03-29T01:53:27;12;12;
77481;PMS5003;66582;43.004;-75.010;2023-03-29T01:55:51;12;9;
77481;PMS5003;66582;43.004;-75.010;2023-03-29T01:58:16;9;7;
77481;PMS5003;66582;43.004;-75.010;2023-03-29T02:00:41;9;6;
77481;PMS5003;66582;43.004;-75.010;2023-03-29T02:03:06;11;11;
77481;PMS5003;66582;43.004;-75.010;2023-03-29T02:05:32;11;10;
77481;PMS5003;66582;43.004;-75.010;2023-03-29T02:07:56;12;12;
77481;PMS5003;66582;43.004;-75.010;2023-03-29T02:10:22;13;13;
77481;PMS5003;66582;43.004;-75.010;2023-03-29T02:12:48;19;17;
77481;PMS5003;66582;43.004;-75.010;2023-03-29T02:15:14;17;17;
77481;PMS5003;66582;43.004;-75.010;2023-03-29T02:17:37;17;16;
77481;PMS5003;66582;43.004;-75.010;2023-03-29T02:20:04;16;13;
77481;PMS5003;66582;43.004;-75.010;2023-03-29T02:22:29;12;12;
77481;PMS5003;66582;43.004;-75.010;2023-03-29T02:24:54;8;8;
77481;PMS5003;66582;43.004;-75.010;2023-03-29T02:27:19;12;10;
77481;PMS5003;66582;43.004;-75.010;2023-03-29T02:29:44;14;12;
77481;PMS5003;66582;43.004;-75.010;2023-03-29T02:32:10;12;12;
77481;PMS5003;66582;43.004;-75.010;2023-03-29T02:34:35;13;11;
77481;PMS5003;66582;43.004;-75.010;2023-03-29T02:37:01;10;10;
77481;PMS5003;66582;43.004;-75.010;2023-03-29T02:39:25;11;10;
77481;PMS5003;66582;43.004;-75.010;2023-03-29T02:41:50;11;11;
77481;PMS5003;66582;43.004;-75.010;2023-03-29T02:44:16;10;10;
77481;PMS5003;66582;43.004;-75.010;2023-03-29T02:46:40;16;16;
77481;PMS5003;66582;43.004;-75.010;2023-03-29T02:49:06;35;34;
77481;PMS5003;66582;43.004;-75.010;2023-03-29T02:51:31;43;40;
77481;PMS5003;66582;43.004;-75.010;2023-03-29T02:53:58;23;22;
77481;PMS5003;66582;43.004;-75.010;2023-03-29T02:56:22;20;20;
77481;PMS5003;66582;43.004;-75.010;2023-03-29T02:58:47;16;15;
77481;PMS5003;66582;43.004;-75.010;2023-03-29T03:01:12;13;11;
77481;PMS5003;66582;43.004;-75.010;2023-03-29T03:03:37;14;12;
77481;PMS5003;66582;43.004;-75.010;2023-03-29T03:06:03;14;14;
77481;PMS5003;66582;43.004;-75.010;2023-03-29T03:08:28;17;17;
77481;PMS5003;66582;43.004;-75.010;2023-03-29T03:10:53;14;14;
77481;PMS5003;66582;43.004;-75.010;2023-03-29T03:13:19;16;14;
77481;PMS5003;66582;43.004;-75.010;2023-03-29T03:15:44;15;15;
77481;PMS5003;66582;43.004;-75.010;2023-03-29T03:18:09;14;14;
77481;PMS5003;66582;43.004;-75.010;2023-03-29T03:20:35;15;14;
77481;PMS5003;66582;43.004;-75.010;2023-03-29T03:23:01;14;13;
77481;PMS5003;66582;43.004;-75.010;2023-03-29T03:25:26;14;14;
77481;PMS5003;66582;43.004;-75.010;2023-03-29T03:27:52;10;10;
77481;PMS5003;66582;43.004;-75.010;2023-03-29T03:30:17;10;9;
77481;PMS5003;66582;43.004;-75.010;2023-03-29T03:32:42;14;13;
77481;PMS5003;66582;43.004;-75.010;2023-03-29T03:35:09;11;10;
77481;PMS5003;66582;43.004;-75.010;2023-03-29T03:37:33;10;10;
77481;PMS5003;66582;43.004;-75.010;2023-03-29T03:39:58;12;10;
77481;PMS5003;66582;43.004;-75.010;2023-03-29T03:42:26;25;24;
77481;PMS5003;66582;43.004;-75.010;2023-03-29T03:44:50;19;18;
77481;PMS5003;66582;43.004;-75.010;2023-03-29T03:47:16;14;14;
77481;PMS5003;66582;43.004;-75.010;2023-03-29T03:49:41;15;14;
77481;PMS5003;66582;43.004;-75.010;2023-03-29T03:52:07;16;15;
77481;PMS5003;66582;43.004;-75.010;2023-03-29T03:54:32;16;14;
77481;PMS5003;66582;43.004;-75.010;2023-03-29T03:56:57;11;10;
77481;PMS5003;66582;43.004;-75.010;2023-03-29T03:59:22;11;10;
77481;PMS5003;66582;43.004;-75.010;2023-03-29T04:01:47;10;10;
77481;PMS5003;66582;43.004;-75.010;2023-03-29T04:04:13;11;10;
77481;PMS5003;66582;43.004;-75.010;2023-03-29T04:06:38;11;10;
77481;PMS5003;66582;43.004;-75.010;2023-03-29T04:09:03;8;8;
77481;PMS5003;66582;43.004;-75.010;2023-03-29T04:11:28;8;8;
77481;PMS5003;66582;43.004;-75.010;2023-03-29T04:13:53;11;10;
77481;PMS5003;66582;43.004;-75.010;2023-03-29T04:16:19;15;13;
77481;PMS5003;66582;43.004;-75.010;2023-03-29T04:18:45;16;16;
77481;PMS5003;66582;43.004;-75.010;2023-03-29T04:21:10;16;14;
77481;PMS5003;66582;43.004;-75.010;2023-03-29T04:23:36;17;16;
77481;PMS5003;66582;43.004;-75.010;2023-03-29T04:26:01;18;17;
77481;PMS5003;66582;43.004;-75.010;2023-03-29T04:28:26;17;16;
77481;PMS5003;66582;43.004;-75.010;2023-03-29T04:30:52;16;15;
77481;PMS5003;66582;43.004;-75.010;2023-03-29T04:33:17;13;13;
77481;PMS5003;66582;43.004;-75.010;2023-03-29T04:35:43;13;13;
77481;PMS5003;66582;43.004;-75.010;2023-03-29T04:38:08;10;9;
77481;PMS5003;66582;43.004;-75.010;2023-03-29T04:40:32;11;10;
77481;PMS5003;66582;43.004;-75.010;2023-03-29T04:42:57;9;9;
77481;PMS5003;66582;43.004;-75.010;2023-03-29T04:45:23;9;9;
77481;PMS5003;66582;43.004;-75.010;2023-03-29T04:47:48;10;9;
77481;PMS5003;66582;43.004;-75.010;2023-03-29T04:50:14;8;7;
77481;PMS5003;66582;43.004;-75.010;2023-03-29T04:52:39;7;7;
77481;PMS5003;66582;43.004;-75.010;2023-03-29T04:55:04;7;7;
77481;PMS5003;66582;43.004;-75.010;2023-03-29T04:57:29;4;4;
77481;PMS5003;66582;43.004;-75.010;2023-03-29T04:59:54;8;8;
77481;PMS5003;66582;43.004;-75.010;2023-03-29T05:02:20;7;5;
77481;PMS5003;66582;43.004;-75.010;2023-03-29T05:04:45;7;6;
77481;PMS5003;66582;43.004;-75.010;2023-03-29T05:07:10;9;9;
77481;PMS5003;66582;43.004;-75.010;2023-03-29T05:09:35;8;8;
77481;PMS5003;66582;43.004;-75.010;2023-03-29T05:12:01;7;7;
77481;PMS5003;66582;43.004;-75.010;2023-03-29T05:14:25;7;7;
77481;PMS5003;66582;43.004;-75.010;2023-03-29T05:16:51;7;7;
77481;PMS5003;66582;43.004;-75.010;2023-03-29T05:19:16;9;9;
77481;PMS5003;66582;43.004;-75.010;2023-03-29T05:21:42;8;8;
77481;PMS5003;66582;43.004;-75.010;2023-03-29T05:24:07;7;5;
77481;PMS5003;66582;43.004;-75.010;2023-03-29T05:26:32;5;4;
77481;PMS5003;66582;43.004;-75.010;2023-03-29T05:28:56;5;5;
77481;PMS5003;66582;43.004;-75.010;2023-03-29T05:31:22;10;7;
77481;PMS5003;66582;43.004;-75.010;2023-03-29T05:33:47;9;7;
77481;PMS5003;66582;43.004;-75.010;2023-03-29T05:36:13;8;8;
77481;PMS5003;66582;43.004;-75.010;2023-03-29T05:38:38;14;12;
77481;PMS5003;66582;43.004;-75.010;2023-03-29T05:41:03;12;10;
77481;PMS5003;66582;43.004;-75.010;2023-03-29T05:43:28;9;9;
77481;PMS5003;66582;43.004;-75.010;2023-03-29T05:45:53;11;11;
77481;PMS5003;66582;43.004;-75.010;2023-03-29T05:48:18;10;9;
77481;PMS5003;66582;43.004;-75.010;2023-03-29T05:50:45;15;14;
77481;PMS5003;66582;43.004;-75.010;2023-03-29T05:53:09;14;13;
77481;PMS5003;66582;43.004;-75.010;2023-03-29T05:55:34;13;11;
77481;PMS5003;66582;43.004;-75.010;2023-03-29T05:58:00;13;13;
77481;PMS5003;66582;43.004;-75.010;2023-03-29T06:00:25;10;10;
77481;PMS5003;66582;43.004;-75.010;2023-03-29T06:02:50;12;12;
77481;PMS5003;66582;43.004;-75.010;2023-03-29T06:05:16;16;14;
77481;PMS5003;66582;43.004;-75.010;2023-03-29T06:07:41;15;15;
77481;PMS5003;66582;43.004;-75.010;2023-03-29T06:10:07;14;13;
77481;PMS5003;66582;43.004;-75.010;2023-03-29T06:12:31;11;11;
77481;PMS5003;66582;43.004;-75.010;2023-03-29T06:14:57;12;11;
77481;PMS5003;66582;43.004;-75.010;2023-03-29T06:17:22;11;10;
77481;PMS5003;66582;43.004;-75.010;2023-03-29T06:19:47;10;10;
77481;PMS5003;66582;43.004;-75.010;2023-03-29T06:22:13;11;10;
77481;PMS5003;66582;43.004;-75.010;2023-03-29T06:24:38;14;13;
77481;PMS5003;66582;43.004;-75.010;2023-03-29T06:27:03;15;13;
77481;PMS5003;66582;43.004;-75.010;2023-03-29T06:29:28;11;10;
77481;PMS5003;66582;43.004;-75.010;2023-03-29T06:31:53;15;13;
77481;PMS5003;66582;43.004;-75.010;2023-03-29T06:34:19;14;13;
77481;PMS5003;66582;43.004;-75.010;2023-03-29T06:36:44;13;13;
77481;PMS5003;66582;43.004;-75.010;2023-03-29T06:39:09;12;10;
77481;PMS5003;66582;43.004;-75.010;2023-03-29T06:41:35;12;10;
77481;PMS5003;66582;43.004;-75.010;2023-03-29T06:44:00;12;10;
77481;PMS5003;66582;43.004;-75.010;2023-03-29T06:46:26;15;13;
77481;PMS5003;66582;43.004;-75.010;2023-03-29T06:48:52;9;9;
77481;PMS5003;66582;43.004;-75.010;2023-03-29T06:51:17;11;11;
77481;PMS5003;66582;43.004;-75.010;2023-03-29T06:53:42;12;11;
77481;PMS5003;66582;43.004;-75.010;2023-03-29T06:56:08;15;13;
77481;PMS5003;66582;43.004;-75.010;2023-03-29T06:58:33;12;12;
77481;PMS5003;66582;43.004;-75.010;2023-03-29T07:00:59;14;14;
77481;PMS5003;66582;43.004;-75.010;2023-03-29T07:03:23;14;13;
77481;PMS5003;66582;43.004;-75.010;2023-03-29T07:05:49;16;13;
77481;PMS5003;66582;43.004;-75.010;2023-03-29T07:08:14;13;13;
77481;PMS5003;66582;43.004;-75.010;2023-03-29T07:10:45;14;13;
77481;PMS5003;66582;43.004;-75.010;2023-03-29T07:13:05;12;12;
77481;PMS5003;66582;43.004;-75.010;2023-03-29T07:15:30;12;11;
77481;PMS5003;66582;43.004;-75.010;2023-03-29T07:17:56;13;12;
77481;PMS5003;66582;43.004;-75.010;2023-03-29T07:20:21;12;12;
77481;PMS5003;66582;43.004;-75.010;2023-03-29T07:22:46;12;12;
77481;PMS5003;66582;43.004;-75.010;2023-03-29T07:25:12;10;10;
77481;PMS5003;66582;43.004;-75.010;2023-03-29T07:27:37;12;12;
77481;PMS5003;66582;43.004;-75.010;2023-03-29T07:30:04;15;14;
77481;PMS5003;66582;43.004;-75.010;2023-03-29T07:32:29;14;13;
77481;PMS5003;66582;43.004;-75.010;2023-03-29T07:34:52;15;14;
77481;PMS5003;66582;43.004;-75.010;2023-03-29T07:37:18;14;12;
77481;PMS5003;66582;43.004;-75.010;2023-03-29T07:39:43;13;12;
77481;PMS5003;66582;43.004;-75.010;2023-03-29T07:42:08;12;10;
77481;PMS5003;66582;43.004;-75.010;2023-03-29T07:44:34;13;12;
77481;PMS5003;66582;43.004;-75.010;2023-03-29T07:47:00;14;13;
77481;PMS5003;66582;43.004;-75.010;2023-03-29T07:49:24;15;14;
77481;PMS5003;66582;43.004;-75.010;2023-03-29T07:51:50;13;11;
77481;PMS5003;66582;43.004;-75.010;2023-03-29T07:54:15;12;12;
77481;PMS5003;66582;43.004;-75.010;2023-03-29T07:56:41;14;12;
77481;PMS5003;66582;43.004;-75.010;2023-03-29T07:59:06;14;14;
77481;PMS5003;66582;43.004;-75.010;2023-03-29T08:01:32;14;12;
77481;PMS5003;66582;43.004;-75.010;2023-03-29T08:03:57;14;12;
77481;PMS5003;66582;43.004;-75.010;2023-03-29T08:06:22;15;13;
77481;PMS5003;66582;43.004;-75.010;2023-03-29T08:08:47;14;13;
77481;PMS5003;66582;43.004;-75.010;2023-03-29T08:11:12;15;13;
77481;PMS5003;66582;43.004;-75.010;2023-03-29T08:13:38;14;13;
77481;PMS5003;66582;43.004;-75.010;2023-03-29T08:16:04;12;12;
77481;PMS5003;66582;43.004;-75.010;2023-03-29T08:18:29;12;12;
77481;PMS5003;66582;43.004;-75.010;2023-03-29T08:20:54;14;13;
77481;PMS5003;66582;43.004;-75.010;2023-03-29T08:23:19;12;11;
77481;PMS5003;66582;43.004;-75.010;2023-03-29T08:25:45;13;10;
77481;PMS5003;66582;43.004;-75.010;2023-03-29T08:28:10;8;8;
77481;PMS5003;66582;43.004;-75.010;2023-03-29T08:30:35;9;9;
77481;PMS5003;66582;43.004;-75.010;2023-03-29T08:33:01;8;8;
77481;PMS5003;66582;43.004;-75.010;2023-03-29T08:35:26;9;8;
77481;PMS5003;66582;43.004;-75.010;2023-03-29T08:37:51;12;10;
77481;PMS5003;66582;43.004;-75.010;2023-03-29T08:40:18;9;8;
77481;PMS5003;66582;43.004;-75.010;2023-03-29T08:42:45;9;9;
77481;PMS5003;66582;43.004;-75.010;2023-03-29T08:45:08;8;8;
77481;PMS5003;66582;43.004;-75.010;2023-03-29T08:47:33;10;8;
77481;PMS5003;66582;43.004;-75.010;2023-03-29T08:49:57;10;9;
77481;PMS5003;66582;43.004;-75.010;2023-03-29T08:52:26;14;13;
77481;PMS5003;66582;43.004;-75.010;2023-03-29T08:54:49;10;10;
77481;PMS5003;66582;43.004;-75.010;2023-03-29T08:57:15;10;8;
77481;PMS5003;66582;43.004;-75.010;2023-03-29T08:59:39;9;8;
77481;PMS5003;66582;43.004;-75.010;2023-03-29T09:02:08;16;13;
77481;PMS5003;66582;43.004;-75.010;2023-03-29T09:04:31;7;7;
77481;PMS5003;66582;43.004;-75.010;2023-03-29T09:06:55;12;10;
77481;PMS5003;66582;43.004;-75.010;2023-03-29T09:09:21;14;14;
77481;PMS5003;66582;43.004;-75.010;2023-03-29T09:11:51;12;11;
77481;PMS5003;66582;43.004;-75.010;2023-03-29T09:14:18;8;8;
77481;PMS5003;66582;43.004;-75.010;2023-03-29T09:16:37;9;8;
77481;PMS5003;66582;43.004;-75.010;2023-03-29T09:19:03;12;11;
77481;PMS5003;66582;43.004;-75.010;2023-03-29T09:21:28;12;11;
77481;PMS5003;66582;43.004;-75.010;2023-03-29T09:23:56;12;12;
77481;PMS5003;66582;43.004;-75.010;2023-03-29T09:26:20;12;11;
77481;PMS5003;66582;43.004;-75.010;2023-03-29T09:28:45;11;11;
77481;PMS5003;66582;43.004;-75.010;2023-03-29T09:31:11;12;11;
77481;PMS5003;66582;43.004;-75.010;2023-03-29T09:33:36;13;12;
77481;PMS5003;66582;43.004;-75.010;2023-03-29T09:36:00;12;11;
77481;PMS5003;66582;43.004;-75.010;2023-03-29T09:38:24;8;8;
77481;PMS5003;66582;43.004;-75.010;2023-03-29T09:40:51;11;11;
77481;PMS5003;66582;43.004;-75.010;2023-03-29T09:43:17;12;11;
77481;PMS5003;66582;43.004;-75.010;2023-03-29T09:45:40;11;9;
77481;PMS5003;66582;43.004;-75.010;2023-03-29T09:48:08;11;8;
77481;PMS5003;66582;43.004;-75.010;2023-03-29T09:50:33;9;9;
77481;PMS5003;66582;43.004;-75.010;2023-03-29T09:52:56;9;8;
77481;PMS5003;66582;43.004;-75.010;2023-03-29T09:55:24;13;11;
77481;PMS5003;66582;43.004;-75.010;2023-03-29T09:57:46;14;12;
77481;PMS5003;66582;43.004;-75.010;2023-03-29T10:00:12;8;8;
77481;PMS5003;66582;43.004;-75.010;2023-03-29T10:02:37;12;12;
77481;PMS5003;66582;43.004;-75.010;2023-03-29T10:05:03;9;8;
77481;PMS5003;66582;43.004;-75.010;2023-03-29T10:09:53;11;10;
77481;PMS5003;66582;43.004;-75.010;2023-03-29T10:12:18;13;12;
77481;PMS5003;66582;43.004;-75.010;2023-03-29T10:14:44;13;12;
77481;PMS5003;66582;43.004;-75.010;2023-03-29T10:17:11;11;11;
77481;PMS5003;66582;43.004;-75.010;2023-03-29T10:19:34;11;9;
77481;PMS5003;66582;43.004;-75.010;2023-03-29T10:21:59;11;11;
77481;PMS5003;66582;43.004;-75.010;2023-03-29T10:24:25;11;10;
77481;PMS5003;66582;43.004;-75.010;2023-03-29T10:26:50;11;8;
77481;PMS5003;66582;43.004;-75.010;2023-03-29T10:29:15;10;10;
77481;PMS5003;66582;43.004;-75.010;2023-03-29T10:31:40;9;9;
77481;PMS5003;66582;43.004;-75.010;2023-03-29T10:34:06;14;13;
77481;PMS5003;66582;43.004;-75.010;2023-03-29T10:36:31;13;11;
77481;PMS5003;66582;43.004;-75.010;2023-03-29T10:38:57;14;13;
77481;PMS5003;66582;43.004;-75.010;2023-03-29T10:41:22;12;12;
77481;PMS5003;66582;43.004;-75.010;2023-03-29T10:43:48;9;9;
77481;PMS5003;66582;43.004;-75.010;2023-03-29T10:46:18;15;12;
77481;PMS5003;66582;43.004;-75.010;2023-03-29T10:48:38;17;12;
77481;PMS5003;66582;43.004;-75.010;2023-03-29T10:51:03;15;13;
77481;PMS5003;66582;43.004;-75.010;2023-03-29T10:53:28;11;11;
77481;PMS5003;66582;43.004;-75.010;2023-03-29T10:55:56;13;11;
77481;PMS5003;66582;43.004;-75.010;2023-03-29T10:58:22;16;12;
77481;PMS5003;66582;43.004;-75.010;2023-03-29T11:00:45;10;10;
77481;PMS5003;66582;43.004;-75.010;2023-03-29T11:05:36;15;12;
77481;PMS5003;66582;43.004;-75.010;2023-03-29T11:08:04;11;11;
77481;PMS5003;66582;43.004;-75.010;2023-03-29T11:10:28;15;12;
77481;PMS5003;66582;43.004;-75.010;2023-03-29T11:12:52;12;11;
77481;PMS5003;66582;43.004;-75.010;2023-03-29T11:15:19;13;13;
77481;PMS5003;66582;43.004;-75.010;2023-03-29T11:17:45;15;13;
77481;PMS5003;66582;43.004;-75.010;2023-03-29T11:20:14;16;12;
77481;PMS5003;66582;43.004;-75.010;2023-03-29T11:22:34;15;15;
77481;PMS5003;66582;43.004;-75.010;2023-03-29T11:25:01;15;12;
77481;PMS5003;66582;43.004;-75.010;2023-03-29T11:27:24;12;12;
77481;PMS5003;66582;43.004;-75.010;2023-03-29T11:29:51;17;14;
77481;PMS5003;66582;43.004;-75.010;2023-03-29T11:32:13;15;13;
77481;PMS5003;66582;43.004;-75.010;2023-03-29T11:34:40;19;17;
77481;PMS5003;66582;43.004;-75.010;2023-03-29T11:37:05;13;13;
77481;PMS5003;66582;43.004;-75.010;2023-03-29T11:39:30;21;18;
77481;PMS5003;66582;43.004;-75.010;2023-03-29T11:41:57;18;14;
77481;PMS5003;66582;43.004;-75.010;2023-03-29T11:44:21;22;19;
77481;PMS5003;66582;43.004;-75.010;2023-03-29T11:46:46;21;20;
77481;PMS5003;66582;43.004;-75.010;2023-03-29T11:49:11;19;14;
77481;PMS5003;66582;43.004;-75.010;2023-03-29T11:51:37;17;15;
77481;PMS5003;66582;43.004;-75.010;2023-03-29T11:54:02;29;25;
77481;PMS5003;66582;43.004;-75.010;2023-03-29T11:56:28;27;27;
77481;PMS5003;66582;43.004;-75.010;2023-03-29T11:58:54;15;15;
77481;PMS5003;66582;43.004;-75.010;2023-03-29T12:01:19;14;14;
77481;PMS5003;66582;43.004;-75.010;2023-03-29T12:03:45;13;11;
77481;PMS5003;66582;43.004;-75.010;2023-03-29T12:06:11;15;14;
77481;PMS5003;66582;43.004;-75.010;2023-03-29T12:08:36;16;15;
77481;PMS5003;66582;43.004;-75.010;2023-03-29T12:11:01;17;15;
77481;PMS5003;66582;43.004;-75.010;2023-03-29T12:13:26;15;14;
77481;PMS5003;66582;43.004;-75.010;2023-03-29T12:15:51;19;17;
77481;PMS5003;66582;43.004;-75.010;2023-03-29T12:18:16;16;15;
77481;PMS5003;66582;43.004;-75.010;2023-03-29T12:20:41;12;12;
77481;PMS5003;66582;43.004;-75.010;2023-03-29T12:23:07;15;14;
77481;PMS5003;66582;43.004;-75.010;2023-03-29T12:25:36;15;15;
77481;PMS5003;66582;43.004;-75.010;2023-03-29T12:28:03;17;16;
77481;PMS5003;66582;43.004;-75.010;2023-03-29T12:30:28;17;16;
77481;PMS5003;66582;43.004;-75.010;2023-03-29T12:32:53;18;16;
77481;PMS5003;66582;43.004;-75.010;2023-03-29T12:35:18;14;14;
77481;PMS5003;66582;43.004;-75.010;2023-03-29T12:37:40;12;11;
77481;PMS5003;66582;43.004;-75.010;2023-03-29T12:40:09;15;14;
77481;PMS5003;66582;43.004;-75.010;2023-03-29T12:42:30;18;17;
77481;PMS5003;66582;43.004;-75.010;2023-03-29T12:44:56;14;14;
77481;PMS5003;66582;43.004;-75.010;2023-03-29T12:47:21;12;12;
77481;PMS5003;66582;43.004;-75.010;2023-03-29T12:49:46;17;17;
77481;PMS5003;66582;43.004;-75.010;2023-03-29T12:52:17;14;14;
77481;PMS5003;66582;43.004;-75.010;2023-03-29T12:54:37;16;15;
77481;PMS5003;66582;43.004;-75.010;2023-03-29T12:59:35;17;14;
77481;PMS5003;66582;43.004;-75.010;2023-03-29T13:01:58;14;14;
77481;PMS5003;66582;43.004;-75.010;2023-03-29T13:04:18;18;14;
77481;PMS5003;66582;43.004;-75.010;2023-03-29T13:11:36;17;13;
77481;PMS5003;66582;43.004;-75.010;2023-03-29T13:14:01;14;13;
77481;PMS5003;66582;43.004;-75.010;2023-03-29T13:16:28;17;16;
77481;PMS5003;66582;43.004;-75.010;2023-03-29T13:18:55;13;12;
77481;PMS5003;66582;43.004;-75.010;2023-03-29T13:21:16;16;16;
77481;PMS5003;66582;43.004;-75.010;2023-03-29T13:23:44;14;12;
77481;PMS5003;66582;43.004;-75.010;2023-03-29T13:28:33;13;13;
77481;PMS5003;66582;43.004;-75.010;2023-03-29T13:30:57;13;13;
77481;PMS5003;66582;43.004;-75.010;2023-03-29T13:33:28;13;13;
77481;PMS5003;66582;43.004;-75.010;2023-03-29T13:35:49;14;12;
77481;PMS5003;66582;43.004;-75.010;2023-03-29T13:38:15;12;12;
77481;PMS5003;66582;43.004;-75.010;2023-03-29T13:40:42;14;13;
77481;PMS5003;66582;43.004;-75.010;2023-03-29T13:43:08;12;10;
77481;PMS5003;66582;43.004;-75.010;2023-03-29T13:45:31;12;11;
77481;PMS5003;66582;43.004;-75.010;2023-03-29T13:48:01;11;11;
77481;PMS5003;66582;43.004;-75.010;2023-03-29T13:50:28;11;11;
77481;PMS5003;66582;43.004;-75.010;2023-03-29T13:52:48;11;10;
77481;PMS5003;66582;43.004;-75.010;2023-03-29T13:55:12;12;10;
77481;PMS5003;66582;43.004;-75.010;2023-03-29T13:57:36;11;10;
77481;PMS5003;66582;43.004;-75.010;2023-03-29T14:00:02;10;10;
77481;PMS5003;66582;43.004;-75.010;2023-03-29T14:02:29;10;9;
77481;PMS5003;66582;43.004;-75.010;2023-03-29T14:04:50;8;8;
77481;PMS5003;66582;43.004;-75.010;2023-03-29T14:07:17;10;9;
77481;PMS5003;66582;43.004;-75.010;2023-03-29T14:09:42;9;8;
77481;PMS5003;66582;43.004;-75.010;2023-03-29T14:12:07;9;9;
77481;PMS5003;66582;43.004;-75.010;2023-03-29T14:14:31;13;12;
77481;PMS5003;66582;43.004;-75.010;2023-03-29T14:16:57;10;10;
77481;PMS5003;66582;43.004;-75.010;2023-03-29T14:19:23;11;10;
77481;PMS5003;66582;43.004;-75.010;2023-03-29T14:21:47;9;8;
77481;PMS5003;66582;43.004;-75.010;2023-03-29T14:24:15;9;8;
77481;PMS5003;66582;43.004;-75.010;2023-03-29T14:26:37;10;10;
77481;PMS5003;66582;43.004;-75.010;2023-03-29T14:29:02;9;9;
77481;PMS5003;66582;43.004;-75.010;2023-03-29T14:31:29;11;10;
77481;PMS5003;66582;43.004;-75.010;2023-03-29T14:33:53;9;6;
77481;PMS5003;66582;43.004;-75.010;2023-03-29T14:36:18;10;10;
77481;PMS5003;66582;43.004;-75.010;2023-03-29T14:38:43;6;6;
77481;PMS5003;66582;43.004;-75.010;2023-03-29T14:41:08;9;8;
77481;PMS5003;66582;43.004;-75.010;2023-03-29T14:43:33;7;7;
77481;PMS5003;66582;43.004;-75.010;2023-03-29T14:45:59;8;8;
77481;PMS5003;66582;43.004;-75.010;2023-03-29T14:48:24;7;7;
77481;PMS5003;66582;43.004;-75.010;2023-03-29T14:50:49;8;8;
77481;PMS5003;66582;43.004;-75.010;2023-03-29T14:53:15;8;7;
77481;PMS5003;66582;43.004;-75.010;2023-03-29T14:55:40;7;7;
77481;PMS5003;66582;43.004;-75.010;2023-03-29T15:00:36;6;6;
77481;PMS5003;66582;43.004;-75.010;2023-03-29T15:02:56;8;7;
77481;PMS5003;66582;43.004;-75.010;2023-03-29T15:05:22;7;6;
77481;PMS5003;66582;43.004;-75.010;2023-03-29T15:07:45;7;6;
77481;PMS5003;66582;43.004;-75.010;2023-03-29T15:10:14;7;7;
77481;PMS5003;66582;43.004;-75.010;2023-03-29T15:12:35;7;7;
77481;PMS5003;66582;43.004;-75.010;2023-03-29T15:15:00;6;6;
77481;PMS5003;66582;43.004;-75.010;2023-03-29T15:17:27;4;4;
77481;PMS5003;66582;43.004;-75.010;2023-03-29T15:19:51;5;3;
77481;PMS5003;66582;43.004;-75.010;2023-03-29T15:22:16;5;5;
77481;PMS5003;66582;43.004;-75.010;2023-03-29T15:24:42;4;4;
77481;PMS5003;66582;43.004;-75.010;2023-03-29T15:27:10;5;5;
77481;PMS5003;66582;43.004;-75.010;2023-03-29T15:29:33;4;4;
77481;PMS5003;66582;43.004;-75.010;2023-03-29T15:31:57;4;4;
77481;PMS5003;66582;43.004;-75.010;2023-03-29T15:34:23;3;3;
77481;PMS5003;66582;43.004;-75.010;2023-03-29T15:36:47;3;3;
77481;PMS5003;66582;43.004;-75.010;2023-03-29T15:39:14;3;3;
77481;PMS5003;66582;43.004;-75.010;2023-03-29T15:41:38;4;4;
77481;PMS5003;66582;43.004;-75.010;2023-03-29T15:44:03;4;4;
77481;PMS5003;66582;43.004;-75.010;2023-03-29T15:46:28;5;5;
77481;PMS5003;66582;43.004;-75.010;2023-03-29T15:48:53;5;4;
77481;PMS5003;66582;43.004;-75.010;2023-03-29T15:51:18;6;5;
77481;PMS5003;66582;43.004;-75.010;2023-03-29T15:53:44;3;3;
77481;PMS5003;66582;43.004;-75.010;2023-03-29T15:56:11;5;5;
77481;PMS5003;66582;43.004;-75.010;2023-03-29T15:58:35;5;5;
77481;PMS5003;66582;43.004;-75.010;2023-03-29T16:01:01;5;5;
77481;PMS5003;66582;43.004;-75.010;2023-03-29T16:03:25;6;4;
77481;PMS5003;66582;43.004;-75.010;2023-03-29T16:05:50;5;5;